sensor_id;sensor_type;location;lat;lon;timestamp;temperature;humidity
22469;DHT22;11401;50.792;4.352;2022-08-01T00:00:13;25.10;59.60
22469;DHT22;11401;50.792;4.352;2022-08-01T00:02:40;25.10;59.50
22469;DHT22;11401;50.792;4.352;2022-08-01T00:05:10;25.10;59.60
22469;DHT22;11401;50.792;4.352;2022-08-01T00:07:37;25.10;59.50
22469;DHT22;11401;50.792;4.352;2022-08-01T00:10:07;25.00;59.50
22469;DHT22;11401;50.792;4.352;2022-08-01T00:12:34;25.10;59.50
22469;DHT22;11401;50.792;4.352;2022-08-01T00:15:03;25.10;59.60
22469;DHT22;11401;50.792;4.352;2022-08-01T00:17:30;25.10;59.60
22469;DHT22;11401;50.792;4.352;2022-08-01T00:19:57;25.00;59.50
22469;DHT22;11401;50.792;4.352;2022-08-01T00:22:24;25.00;59.60
22469;DHT22;11401;50.792;4.352;2022-08-01T00:24:51;25.00;59.60
22469;DHT22;11401;50.792;4.352;2022-08-01T00:27:18;25.00;59.60
22469;DHT22;11401;50.792;4.352;2022-08-01T00:29:46;25.00;59.60
22469;DHT22;11401;50.792;4.352;2022-08-01T00:32:32;25.00;59.60
22469;DHT22;11401;50.792;4.352;2022-08-01T00:35:01;25.00;59.70
22469;DHT22;11401;50.792;4.352;2022-08-01T00:37:28;25.00;59.60
22469;DHT22;11401;50.792;4.352;2022-08-01T00:39:55;25.00;59.60
22469;DHT22;11401;50.792;4.352;2022-08-01T00:42:22;25.00;59.70
22469;DHT22;11401;50.792;4.352;2022-08-01T00:44:49;25.00;59.70
22469;DHT22;11401;50.792;4.352;2022-08-01T00:47:15;25.00;59.70
22469;DHT22;11401;50.792;4.352;2022-08-01T00:49:43;25.00;59.70
22469;DHT22;11401;50.792;4.352;2022-08-01T00:52:10;25.00;59.80
22469;DHT22;11401;50.792;4.352;2022-08-01T00:54:37;25.00;59.70
22469;DHT22;11401;50.792;4.352;2022-08-01T00:57:05;25.00;59.80
22469;DHT22;11401;50.792;4.352;2022-08-01T00:59:37;25.00;59.80
22469;DHT22;11401;50.792;4.352;2022-08-01T01:02:06;25.00;59.90
22469;DHT22;11401;50.792;4.352;2022-08-01T01:04:41;25.00;59.90
22469;DHT22;11401;50.792;4.352;2022-08-01T01:10:32;25.00;60.60
22469;DHT22;11401;50.792;4.352;2022-08-01T01:13:05;24.90;59.90
22469;DHT22;11401;50.792;4.352;2022-08-01T01:15:41;24.90;60.00
22469;DHT22;11401;50.792;4.352;2022-08-01T01:20:37;24.90;60.00
22469;DHT22;11401;50.792;4.352;2022-08-01T01:23:34;24.90;60.10
22469;DHT22;11401;50.792;4.352;2022-08-01T01:29:25;24.90;60.00
22469;DHT22;11401;50.792;4.352;2022-08-01T01:32:17;24.90;60.20
22469;DHT22;11401;50.792;4.352;2022-08-01T01:34:56;24.90;60.10
22469;DHT22;11401;50.792;4.352;2022-08-01T01:37:26;24.90;60.50
22469;DHT22;11401;50.792;4.352;2022-08-01T01:39:54;24.90;60.50
22469;DHT22;11401;50.792;4.352;2022-08-01T01:42:24;24.90;60.50
22469;DHT22;11401;50.792;4.352;2022-08-01T01:44:52;24.90;60.50
22469;DHT22;11401;50.792;4.352;2022-08-01T01:47:21;24.90;60.50
22469;DHT22;11401;50.792;4.352;2022-08-01T01:49:49;24.90;60.60
22469;DHT22;11401;50.792;4.352;2022-08-01T01:52:18;24.80;60.50
22469;DHT22;11401;50.792;4.352;2022-08-01T01:54:48;24.90;60.60
22469;DHT22;11401;50.792;4.352;2022-08-01T01:57:17;24.80;60.60
22469;DHT22;11401;50.792;4.352;2022-08-01T01:59:46;24.80;60.60
22469;DHT22;11401;50.792;4.352;2022-08-01T02:02:14;24.80;60.70
22469;DHT22;11401;50.792;4.352;2022-08-01T02:04:45;24.80;60.60
22469;DHT22;11401;50.792;4.352;2022-08-01T02:07:24;24.90;60.70
22469;DHT22;11401;50.792;4.352;2022-08-01T02:09:52;24.80;60.70
22469;DHT22;11401;50.792;4.352;2022-08-01T02:12:20;24.80;60.70
22469;DHT22;11401;50.792;4.352;2022-08-01T02:14:52;24.80;60.70
22469;DHT22;11401;50.792;4.352;2022-08-01T02:17:21;24.80;60.80
22469;DHT22;11401;50.792;4.352;2022-08-01T02:19:50;24.80;60.90
22469;DHT22;11401;50.792;4.352;2022-08-01T02:22:21;24.80;60.80
22469;DHT22;11401;50.792;4.352;2022-08-01T02:24:59;24.80;60.90
22469;DHT22;11401;50.792;4.352;2022-08-01T02:27:42;24.80;60.90
22469;DHT22;11401;50.792;4.352;2022-08-01T02:30:13;24.80;60.80
22469;DHT22;11401;50.792;4.352;2022-08-01T02:32:58;24.80;61.00
22469;DHT22;11401;50.792;4.352;2022-08-01T02:35:30;24.80;61.00
22469;DHT22;11401;50.792;4.352;2022-08-01T02:38:00;24.70;61.10
22469;DHT22;11401;50.792;4.352;2022-08-01T02:40:31;24.70;61.10
22469;DHT22;11401;50.792;4.352;2022-08-01T02:43:01;24.80;61.10
22469;DHT22;11401;50.792;4.352;2022-08-01T02:45:30;24.80;61.10
22469;DHT22;11401;50.792;4.352;2022-08-01T02:48:03;24.80;61.20
22469;DHT22;11401;50.792;4.352;2022-08-01T02:50:33;24.80;61.20
22469;DHT22;11401;50.792;4.352;2022-08-01T02:53:01;24.80;61.20
22469;DHT22;11401;50.792;4.352;2022-08-01T02:55:31;24.80;61.20
22469;DHT22;11401;50.792;4.352;2022-08-01T02:58:00;24.80;61.20
22469;DHT22;11401;50.792;4.352;2022-08-01T03:00:29;24.70;61.20
22469;DHT22;11401;50.792;4.352;2022-08-01T03:02:58;24.80;61.20
22469;DHT22;11401;50.792;4.352;2022-08-01T03:05:30;24.70;61.20
22469;DHT22;11401;50.792;4.352;2022-08-01T03:07:59;24.70;61.20
22469;DHT22;11401;50.792;4.352;2022-08-01T03:10:30;24.70;61.30
22469;DHT22;11401;50.792;4.352;2022-08-01T03:13:00;24.80;61.30
22469;DHT22;11401;50.792;4.352;2022-08-01T03:15:29;24.70;61.30
22469;DHT22;11401;50.792;4.352;2022-08-01T03:17:59;24.70;61.20
22469;DHT22;11401;50.792;4.352;2022-08-01T03:20:30;24.70;61.20
22469;DHT22;11401;50.792;4.352;2022-08-01T03:23:05;24.70;61.40
22469;DHT22;11401;50.792;4.352;2022-08-01T03:25:35;24.70;61.30
22469;DHT22;11401;50.792;4.352;2022-08-01T03:28:07;24.80;61.30
22469;DHT22;11401;50.792;4.352;2022-08-01T03:30:36;24.80;61.40
22469;DHT22;11401;50.792;4.352;2022-08-01T03:33:05;24.70;61.30
22469;DHT22;11401;50.792;4.352;2022-08-01T03:35:49;24.70;61.30
22469;DHT22;11401;50.792;4.352;2022-08-01T03:38:23;24.70;61.50
22469;DHT22;11401;50.792;4.352;2022-08-01T03:40:56;24.70;61.70
22469;DHT22;11401;50.792;4.352;2022-08-01T03:43:32;24.70;61.70
22469;DHT22;11401;50.792;4.352;2022-08-01T03:46:06;24.70;61.80
22469;DHT22;11401;50.792;4.352;2022-08-01T03:48:39;24.70;61.90
22469;DHT22;11401;50.792;4.352;2022-08-01T03:51:07;24.70;62.10
22469;DHT22;11401;50.792;4.352;2022-08-01T03:53:37;24.70;62.40
22469;DHT22;11401;50.792;4.352;2022-08-01T03:56:08;24.70;62.50
22469;DHT22;11401;50.792;4.352;2022-08-01T03:58:39;24.70;62.60
22469;DHT22;11401;50.792;4.352;2022-08-01T04:01:07;24.70;63.00
22469;DHT22;11401;50.792;4.352;2022-08-01T04:03:42;24.70;63.10
22469;DHT22;11401;50.792;4.352;2022-08-01T04:06:09;24.70;63.10
22469;DHT22;11401;50.792;4.352;2022-08-01T04:08:38;24.70;63.20
22469;DHT22;11401;50.792;4.352;2022-08-01T04:11:05;24.70;63.40
22469;DHT22;11401;50.792;4.352;2022-08-01T04:13:35;24.70;63.50
22469;DHT22;11401;50.792;4.352;2022-08-01T04:16:03;24.70;63.70
22469;DHT22;11401;50.792;4.352;2022-08-01T04:18:30;24.60;63.90
22469;DHT22;11401;50.792;4.352;2022-08-01T04:20:57;24.70;63.90
22469;DHT22;11401;50.792;4.352;2022-08-01T04:23:26;24.60;64.10
22469;DHT22;11401;50.792;4.352;2022-08-01T04:25:55;24.60;64.10
22469;DHT22;11401;50.792;4.352;2022-08-01T04:28:25;24.60;64.20
22469;DHT22;11401;50.792;4.352;2022-08-01T04:30:54;24.60;64.20
22469;DHT22;11401;50.792;4.352;2022-08-01T04:33:29;24.60;64.50
22469;DHT22;11401;50.792;4.352;2022-08-01T04:35:59;24.60;64.60
22469;DHT22;11401;50.792;4.352;2022-08-01T04:38:33;24.60;64.60
22469;DHT22;11401;50.792;4.352;2022-08-01T04:41:01;24.60;64.50
22469;DHT22;11401;50.792;4.352;2022-08-01T04:43:38;24.60;64.60
22469;DHT22;11401;50.792;4.352;2022-08-01T04:46:05;24.60;64.80
22469;DHT22;11401;50.792;4.352;2022-08-01T04:48:35;24.50;64.80
22469;DHT22;11401;50.792;4.352;2022-08-01T04:51:03;24.50;64.80
22469;DHT22;11401;50.792;4.352;2022-08-01T04:53:30;24.50;64.90
22469;DHT22;11401;50.792;4.352;2022-08-01T04:55:59;24.60;64.90
22469;DHT22;11401;50.792;4.352;2022-08-01T04:58:26;24.50;64.90
22469;DHT22;11401;50.792;4.352;2022-08-01T05:00:53;24.50;64.80
22469;DHT22;11401;50.792;4.352;2022-08-01T05:03:22;24.50;64.90
22469;DHT22;11401;50.792;4.352;2022-08-01T05:05:52;24.50;64.80
22469;DHT22;11401;50.792;4.352;2022-08-01T05:08:19;24.50;64.80
22469;DHT22;11401;50.792;4.352;2022-08-01T05:10:46;24.50;64.80
22469;DHT22;11401;50.792;4.352;2022-08-01T05:13:13;24.50;64.80
22469;DHT22;11401;50.792;4.352;2022-08-01T05:15:39;24.50;64.80
22469;DHT22;11401;50.792;4.352;2022-08-01T05:18:07;24.50;64.70
22469;DHT22;11401;50.792;4.352;2022-08-01T05:20:35;24.60;64.90
22469;DHT22;11401;50.792;4.352;2022-08-01T05:23:04;24.50;64.80
22469;DHT22;11401;50.792;4.352;2022-08-01T05:25:36;24.50;65.00
22469;DHT22;11401;50.792;4.352;2022-08-01T05:28:23;24.50;65.00
22469;DHT22;11401;50.792;4.352;2022-08-01T05:30:50;24.50;65.00
22469;DHT22;11401;50.792;4.352;2022-08-01T05:33:16;24.50;65.00
22469;DHT22;11401;50.792;4.352;2022-08-01T05:35:43;24.50;65.00
22469;DHT22;11401;50.792;4.352;2022-08-01T05:38:15;24.50;64.90
22469;DHT22;11401;50.792;4.352;2022-08-01T05:40:41;24.60;65.00
22469;DHT22;11401;50.792;4.352;2022-08-01T05:43:08;24.60;64.90
22469;DHT22;11401;50.792;4.352;2022-08-01T05:45:35;24.60;64.90
22469;DHT22;11401;50.792;4.352;2022-08-01T05:48:02;24.50;64.80
22469;DHT22;11401;50.792;4.352;2022-08-01T05:50:29;24.60;64.80
22469;DHT22;11401;50.792;4.352;2022-08-01T05:52:56;24.60;64.70
22469;DHT22;11401;50.792;4.352;2022-08-01T05:55:23;24.60;64.70
22469;DHT22;11401;50.792;4.352;2022-08-01T05:57:50;24.60;64.70
22469;DHT22;11401;50.792;4.352;2022-08-01T06:00:17;24.60;64.60
22469;DHT22;11401;50.792;4.352;2022-08-01T06:02:44;24.60;64.60
22469;DHT22;11401;50.792;4.352;2022-08-01T06:05:11;24.60;64.40
22469;DHT22;11401;50.792;4.352;2022-08-01T06:07:39;24.60;64.10
22469;DHT22;11401;50.792;4.352;2022-08-01T06:10:07;24.60;64.00
22469;DHT22;11401;50.792;4.352;2022-08-01T06:12:35;24.60;64.10
22469;DHT22;11401;50.792;4.352;2022-08-01T06:15:03;24.60;63.90
22469;DHT22;11401;50.792;4.352;2022-08-01T06:17:30;24.60;63.90
22469;DHT22;11401;50.792;4.352;2022-08-01T06:19:57;24.60;63.90
22469;DHT22;11401;50.792;4.352;2022-08-01T06:22:24;24.70;64.20
22469;DHT22;11401;50.792;4.352;2022-08-01T06:24:51;24.60;64.20
22469;DHT22;11401;50.792;4.352;2022-08-01T06:27:18;24.70;64.40
22469;DHT22;11401;50.792;4.352;2022-08-01T06:29:48;24.70;64.30
22469;DHT22;11401;50.792;4.352;2022-08-01T06:32:23;24.70;63.90
22469;DHT22;11401;50.792;4.352;2022-08-01T06:34:54;24.70;63.90
22469;DHT22;11401;50.792;4.352;2022-08-01T06:37:22;24.70;63.50
22469;DHT22;11401;50.792;4.352;2022-08-01T06:39:49;24.70;63.40
22469;DHT22;11401;50.792;4.352;2022-08-01T06:42:16;24.80;63.20
22469;DHT22;11401;50.792;4.352;2022-08-01T06:44:44;24.80;63.10
22469;DHT22;11401;50.792;4.352;2022-08-01T06:47:12;24.80;62.90
22469;DHT22;11401;50.792;4.352;2022-08-01T06:49:39;24.80;62.90
22469;DHT22;11401;50.792;4.352;2022-08-01T06:52:05;24.80;62.60
22469;DHT22;11401;50.792;4.352;2022-08-01T06:54:33;24.90;62.70
22469;DHT22;11401;50.792;4.352;2022-08-01T06:57:00;24.90;62.50
22469;DHT22;11401;50.792;4.352;2022-08-01T06:59:27;24.90;62.50
22469;DHT22;11401;50.792;4.352;2022-08-01T07:01:54;24.90;62.30
22469;DHT22;11401;50.792;4.352;2022-08-01T07:04:21;24.90;62.30
22469;DHT22;11401;50.792;4.352;2022-08-01T07:06:48;24.90;62.20
22469;DHT22;11401;50.792;4.352;2022-08-01T07:09:15;24.90;62.10
22469;DHT22;11401;50.792;4.352;2022-08-01T07:11:42;24.90;61.90
22469;DHT22;11401;50.792;4.352;2022-08-01T07:14:09;24.90;61.90
22469;DHT22;11401;50.792;4.352;2022-08-01T07:16:36;24.90;61.80
22469;DHT22;11401;50.792;4.352;2022-08-01T07:19:03;24.90;61.50
22469;DHT22;11401;50.792;4.352;2022-08-01T07:21:30;24.90;61.50
22469;DHT22;11401;50.792;4.352;2022-08-01T07:24:08;25.00;61.50
22469;DHT22;11401;50.792;4.352;2022-08-01T07:26:41;25.00;61.40
22469;DHT22;11401;50.792;4.352;2022-08-01T07:29:21;25.00;61.40
22469;DHT22;11401;50.792;4.352;2022-08-01T07:31:48;25.00;61.30
22469;DHT22;11401;50.792;4.352;2022-08-01T07:34:15;25.00;61.20
22469;DHT22;11401;50.792;4.352;2022-08-01T07:36:42;25.00;61.00
22469;DHT22;11401;50.792;4.352;2022-08-01T07:39:09;25.00;60.90
22469;DHT22;11401;50.792;4.352;2022-08-01T07:41:36;25.10;61.10
22469;DHT22;11401;50.792;4.352;2022-08-01T07:44:23;25.00;61.00
22469;DHT22;11401;50.792;4.352;2022-08-01T07:46:53;25.10;60.90
22469;DHT22;11401;50.792;4.352;2022-08-01T07:49:20;25.10;60.70
22469;DHT22;11401;50.792;4.352;2022-08-01T07:51:48;25.10;60.50
22469;DHT22;11401;50.792;4.352;2022-08-01T07:54:31;25.10;60.30
22469;DHT22;11401;50.792;4.352;2022-08-01T07:57:00;25.10;60.10
22469;DHT22;11401;50.792;4.352;2022-08-01T07:59:27;25.10;60.20
22469;DHT22;11401;50.792;4.352;2022-08-01T08:01:54;25.10;60.40
22469;DHT22;11401;50.792;4.352;2022-08-01T08:04:21;25.10;60.30
22469;DHT22;11401;50.792;4.352;2022-08-01T08:06:48;25.20;60.00
22469;DHT22;11401;50.792;4.352;2022-08-01T08:09:16;25.20;59.80
22469;DHT22;11401;50.792;4.352;2022-08-01T08:11:44;25.20;59.90
22469;DHT22;11401;50.792;4.352;2022-08-01T08:14:14;25.20;60.00
22469;DHT22;11401;50.792;4.352;2022-08-01T08:16:42;25.30;59.80
22469;DHT22;11401;50.792;4.352;2022-08-01T08:19:10;25.30;59.70
22469;DHT22;11401;50.792;4.352;2022-08-01T08:21:37;25.30;59.30
22469;DHT22;11401;50.792;4.352;2022-08-01T08:24:05;25.30;59.30
22469;DHT22;11401;50.792;4.352;2022-08-01T08:26:57;25.30;59.60
22469;DHT22;11401;50.792;4.352;2022-08-01T08:29:25;25.40;59.20
22469;DHT22;11401;50.792;4.352;2022-08-01T08:31:54;25.30;59.20
22469;DHT22;11401;50.792;4.352;2022-08-01T08:34:25;25.40;59.10
22469;DHT22;11401;50.792;4.352;2022-08-01T08:37:03;25.40;58.90
22469;DHT22;11401;50.792;4.352;2022-08-01T08:39:31;25.40;58.90
22469;DHT22;11401;50.792;4.352;2022-08-01T08:42:09;25.40;58.90
22469;DHT22;11401;50.792;4.352;2022-08-01T08:44:36;25.40;58.80
22469;DHT22;11401;50.792;4.352;2022-08-01T08:47:11;25.40;58.70
22469;DHT22;11401;50.792;4.352;2022-08-01T08:49:46;25.40;58.60
22469;DHT22;11401;50.792;4.352;2022-08-01T08:52:15;25.40;58.60
22469;DHT22;11401;50.792;4.352;2022-08-01T08:54:46;25.40;58.70
22469;DHT22;11401;50.792;4.352;2022-08-01T08:57:14;25.40;58.70
22469;DHT22;11401;50.792;4.352;2022-08-01T08:59:43;25.50;58.60
22469;DHT22;11401;50.792;4.352;2022-08-01T09:02:10;25.40;58.50
22469;DHT22;11401;50.792;4.352;2022-08-01T09:04:39;25.40;58.60
22469;DHT22;11401;50.792;4.352;2022-08-01T09:07:07;25.40;58.60
22469;DHT22;11401;50.792;4.352;2022-08-01T09:09:37;25.50;58.70
22469;DHT22;11401;50.792;4.352;2022-08-01T09:12:07;25.50;58.50
22469;DHT22;11401;50.792;4.352;2022-08-01T09:14:44;25.40;58.40
22469;DHT22;11401;50.792;4.352;2022-08-01T09:17:11;25.50;58.40
22469;DHT22;11401;50.792;4.352;2022-08-01T09:19:44;25.40;58.50
22469;DHT22;11401;50.792;4.352;2022-08-01T09:22:16;25.50;58.50
22469;DHT22;11401;50.792;4.352;2022-08-01T09:25:07;25.50;58.50
22469;DHT22;11401;50.792;4.352;2022-08-01T09:27:35;25.50;58.40
22469;DHT22;11401;50.792;4.352;2022-08-01T09:30:16;25.50;58.80
22469;DHT22;11401;50.792;4.352;2022-08-01T09:33:04;25.50;58.20
22469;DHT22;11401;50.792;4.352;2022-08-01T09:35:37;25.50;58.30
22469;DHT22;11401;50.792;4.352;2022-08-01T09:38:20;25.50;58.30
22469;DHT22;11401;50.792;4.352;2022-08-01T09:40:58;25.50;58.10
22469;DHT22;11401;50.792;4.352;2022-08-01T09:43:29;25.50;58.30
22469;DHT22;11401;50.792;4.352;2022-08-01T09:45:58;25.60;57.90
22469;DHT22;11401;50.792;4.352;2022-08-01T09:48:26;25.50;58.50
22469;DHT22;11401;50.792;4.352;2022-08-01T09:50:57;25.50;57.90
22469;DHT22;11401;50.792;4.352;2022-08-01T09:53:45;25.50;57.90
22469;DHT22;11401;50.792;4.352;2022-08-01T09:56:17;25.60;57.70
22469;DHT22;11401;50.792;4.352;2022-08-01T09:58:59;25.50;57.70
22469;DHT22;11401;50.792;4.352;2022-08-01T10:01:41;25.60;57.60
22469;DHT22;11401;50.792;4.352;2022-08-01T10:04:20;25.50;57.90
22469;DHT22;11401;50.792;4.352;2022-08-01T10:06:49;25.60;57.70
22469;DHT22;11401;50.792;4.352;2022-08-01T10:09:33;25.50;57.50
22469;DHT22;11401;50.792;4.352;2022-08-01T10:12:06;25.60;57.90
22469;DHT22;11401;50.792;4.352;2022-08-01T10:14:37;25.50;57.80
22469;DHT22;11401;50.792;4.352;2022-08-01T10:17:09;25.60;57.80
22469;DHT22;11401;50.792;4.352;2022-08-01T10:19:44;25.60;57.60
22469;DHT22;11401;50.792;4.352;2022-08-01T10:22:13;25.60;57.60
22469;DHT22;11401;50.792;4.352;2022-08-01T10:24:46;25.60;57.80
22469;DHT22;11401;50.792;4.352;2022-08-01T10:27:15;25.60;57.60
22469;DHT22;11401;50.792;4.352;2022-08-01T10:30:03;25.60;57.30
22469;DHT22;11401;50.792;4.352;2022-08-01T10:32:48;25.60;57.30
22469;DHT22;11401;50.792;4.352;2022-08-01T10:35:17;25.60;57.20
22469;DHT22;11401;50.792;4.352;2022-08-01T10:38:05;25.60;57.20
22469;DHT22;11401;50.792;4.352;2022-08-01T10:40:37;25.60;57.30
22469;DHT22;11401;50.792;4.352;2022-08-01T10:43:05;25.60;57.40
22469;DHT22;11401;50.792;4.352;2022-08-01T10:45:33;25.60;57.40
22469;DHT22;11401;50.792;4.352;2022-08-01T10:48:09;25.60;57.20
22469;DHT22;11401;50.792;4.352;2022-08-01T10:50:49;25.60;56.90
22469;DHT22;11401;50.792;4.352;2022-08-01T10:53:24;25.70;57.00
22469;DHT22;11401;50.792;4.352;2022-08-01T10:56:08;25.60;57.70
22469;DHT22;11401;50.792;4.352;2022-08-01T10:58:43;25.60;57.10
22469;DHT22;11401;50.792;4.352;2022-08-01T11:01:19;25.60;57.20
22469;DHT22;11401;50.792;4.352;2022-08-01T11:04:08;25.60;57.10
22469;DHT22;11401;50.792;4.352;2022-08-01T11:06:53;25.70;57.10
22469;DHT22;11401;50.792;4.352;2022-08-01T11:09:27;25.60;57.30
22469;DHT22;11401;50.792;4.352;2022-08-01T11:12:06;25.60;57.00
22469;DHT22;11401;50.792;4.352;2022-08-01T11:20:14;25.60;57.10
22469;DHT22;11401;50.792;4.352;2022-08-01T11:28:35;25.70;57.00
22469;DHT22;11401;50.792;4.352;2022-08-01T11:38:39;25.60;56.90
22469;DHT22;11401;50.792;4.352;2022-08-01T11:41:32;25.70;57.10
22469;DHT22;11401;50.792;4.352;2022-08-01T11:44:09;25.70;56.90
22469;DHT22;11401;50.792;4.352;2022-08-01T11:46:57;25.60;57.30
22469;DHT22;11401;50.792;4.352;2022-08-01T11:54:49;25.60;57.60
22469;DHT22;11401;50.792;4.352;2022-08-01T11:57:24;25.60;57.70
22469;DHT22;11401;50.792;4.352;2022-08-01T12:00:05;25.60;57.50
22469;DHT22;11401;50.792;4.352;2022-08-01T12:02:41;25.60;57.20
22469;DHT22;11401;50.792;4.352;2022-08-01T12:05:13;25.60;57.00
22469;DHT22;11401;50.792;4.352;2022-08-01T12:07:43;25.60;57.40
22469;DHT22;11401;50.792;4.352;2022-08-01T12:10:12;25.60;57.30
22469;DHT22;11401;50.792;4.352;2022-08-01T12:12:51;25.60;57.20
22469;DHT22;11401;50.792;4.352;2022-08-01T12:15:20;25.70;57.40
22469;DHT22;11401;50.792;4.352;2022-08-01T12:17:56;25.60;57.20
22469;DHT22;11401;50.792;4.352;2022-08-01T12:20:31;25.60;57.60
22469;DHT22;11401;50.792;4.352;2022-08-01T12:23:05;25.60;57.70
22469;DHT22;11401;50.792;4.352;2022-08-01T12:25:32;25.60;58.20
22469;DHT22;11401;50.792;4.352;2022-08-01T12:28:01;25.60;57.30
22469;DHT22;11401;50.792;4.352;2022-08-01T12:30:29;25.60;57.10
22469;DHT22;11401;50.792;4.352;2022-08-01T12:32:58;25.60;56.90
22469;DHT22;11401;50.792;4.352;2022-08-01T12:35:26;25.60;57.00
22469;DHT22;11401;50.792;4.352;2022-08-01T12:37:54;25.60;57.60
22469;DHT22;11401;50.792;4.352;2022-08-01T12:40:26;25.60;56.90
22469;DHT22;11401;50.792;4.352;2022-08-01T12:43:04;25.70;56.90
22469;DHT22;11401;50.792;4.352;2022-08-01T12:45:38;25.60;56.70
22469;DHT22;11401;50.792;4.352;2022-08-01T12:48:24;25.60;57.10
22469;DHT22;11401;50.792;4.352;2022-08-01T12:50:52;25.60;57.40
22469;DHT22;11401;50.792;4.352;2022-08-01T12:53:20;25.60;57.70
22469;DHT22;11401;50.792;4.352;2022-08-01T12:55:53;25.60;57.90
22469;DHT22;11401;50.792;4.352;2022-08-01T12:58:31;25.60;57.40
22469;DHT22;11401;50.792;4.352;2022-08-01T13:01:07;25.60;57.30
22469;DHT22;11401;50.792;4.352;2022-08-01T13:03:34;25.60;57.90
22469;DHT22;11401;50.792;4.352;2022-08-01T13:06:10;25.60;57.60
22469;DHT22;11401;50.792;4.352;2022-08-01T13:08:37;25.60;57.50
22469;DHT22;11401;50.792;4.352;2022-08-01T13:11:07;25.50;57.90
22469;DHT22;11401;50.792;4.352;2022-08-01T13:13:42;25.60;57.50
22469;DHT22;11401;50.792;4.352;2022-08-01T13:16:10;25.50;57.20
22469;DHT22;11401;50.792;4.352;2022-08-01T13:18:58;25.60;57.70
22469;DHT22;11401;50.792;4.352;2022-08-01T13:21:28;25.50;57.80
22469;DHT22;11401;50.792;4.352;2022-08-01T13:24:15;25.60;57.90
22469;DHT22;11401;50.792;4.352;2022-08-01T13:26:50;25.60;57.90
22469;DHT22;11401;50.792;4.352;2022-08-01T13:29:19;25.60;57.90
22469;DHT22;11401;50.792;4.352;2022-08-01T13:31:47;25.50;58.00
22469;DHT22;11401;50.792;4.352;2022-08-01T13:34:15;25.50;58.20
22469;DHT22;11401;50.792;4.352;2022-08-01T13:36:42;25.60;58.00
22469;DHT22;11401;50.792;4.352;2022-08-01T13:39:15;25.50;57.90
22469;DHT22;11401;50.792;4.352;2022-08-01T13:42:01;25.60;58.20
22469;DHT22;11401;50.792;4.352;2022-08-01T13:44:29;25.50;58.30
22469;DHT22;11401;50.792;4.352;2022-08-01T13:46:57;25.50;58.10
22469;DHT22;11401;50.792;4.352;2022-08-01T13:49:24;25.60;57.90
22469;DHT22;11401;50.792;4.352;2022-08-01T13:52:04;25.50;58.20
22469;DHT22;11401;50.792;4.352;2022-08-01T13:54:33;25.50;58.40
22469;DHT22;11401;50.792;4.352;2022-08-01T13:57:00;25.50;57.50
22469;DHT22;11401;50.792;4.352;2022-08-01T13:59:27;25.50;56.50
22469;DHT22;11401;50.792;4.352;2022-08-01T14:01:54;25.50;56.00
22469;DHT22;11401;50.792;4.352;2022-08-01T14:04:21;25.50;55.30
22469;DHT22;11401;50.792;4.352;2022-08-01T14:06:48;25.50;55.20
22469;DHT22;11401;50.792;4.352;2022-08-01T14:09:16;25.50;55.30
22469;DHT22;11401;50.792;4.352;2022-08-01T14:11:50;25.50;54.70
22469;DHT22;11401;50.792;4.352;2022-08-01T14:14:18;25.50;54.40
22469;DHT22;11401;50.792;4.352;2022-08-01T14:16:46;25.60;54.10
22469;DHT22;11401;50.792;4.352;2022-08-01T14:19:13;25.60;53.70
22469;DHT22;11401;50.792;4.352;2022-08-01T14:21:44;25.60;53.70
22469;DHT22;11401;50.792;4.352;2022-08-01T14:24:11;25.60;53.90
22469;DHT22;11401;50.792;4.352;2022-08-01T14:26:38;25.60;54.10
22469;DHT22;11401;50.792;4.352;2022-08-01T14:29:05;25.60;53.90
22469;DHT22;11401;50.792;4.352;2022-08-01T14:31:32;25.60;53.40
22469;DHT22;11401;50.792;4.352;2022-08-01T14:34:00;25.60;53.40
22469;DHT22;11401;50.792;4.352;2022-08-01T14:36:27;25.60;53.50
22469;DHT22;11401;50.792;4.352;2022-08-01T14:38:58;25.60;53.70
22469;DHT22;11401;50.792;4.352;2022-08-01T14:41:27;25.70;53.60
22469;DHT22;11401;50.792;4.352;2022-08-01T14:43:57;25.70;53.30
22469;DHT22;11401;50.792;4.352;2022-08-01T14:46:26;25.60;53.30
22469;DHT22;11401;50.792;4.352;2022-08-01T14:48:53;25.70;53.40
22469;DHT22;11401;50.792;4.352;2022-08-01T14:51:21;25.70;53.60
22469;DHT22;11401;50.792;4.352;2022-08-01T14:53:47;25.70;53.50
22469;DHT22;11401;50.792;4.352;2022-08-01T14:56:18;25.60;53.30
22469;DHT22;11401;50.792;4.352;2022-08-01T14:58:45;25.70;53.50
22469;DHT22;11401;50.792;4.352;2022-08-01T15:01:14;25.60;53.50
22469;DHT22;11401;50.792;4.352;2022-08-01T15:03:41;25.60;53.70
22469;DHT22;11401;50.792;4.352;2022-08-01T15:06:08;25.60;53.60
22469;DHT22;11401;50.792;4.352;2022-08-01T15:08:37;25.60;53.00
22469;DHT22;11401;50.792;4.352;2022-08-01T15:11:05;25.70;53.10
22469;DHT22;11401;50.792;4.352;2022-08-01T15:13:32;25.60;53.30
22469;DHT22;11401;50.792;4.352;2022-08-01T15:15:59;25.70;53.60
22469;DHT22;11401;50.792;4.352;2022-08-01T15:18:28;25.70;53.60
22469;DHT22;11401;50.792;4.352;2022-08-01T15:20:55;25.60;52.70
22469;DHT22;11401;50.792;4.352;2022-08-01T15:23:23;25.60;52.80
22469;DHT22;11401;50.792;4.352;2022-08-01T15:25:50;25.60;53.00
22469;DHT22;11401;50.792;4.352;2022-08-01T15:28:17;25.70;53.30
22469;DHT22;11401;50.792;4.352;2022-08-01T15:30:45;25.70;52.70
22469;DHT22;11401;50.792;4.352;2022-08-01T15:33:12;25.70;52.70
22469;DHT22;11401;50.792;4.352;2022-08-01T15:35:39;25.70;52.90
22469;DHT22;11401;50.792;4.352;2022-08-01T15:38:06;25.70;52.80
22469;DHT22;11401;50.792;4.352;2022-08-01T15:40:33;25.70;52.60
22469;DHT22;11401;50.792;4.352;2022-08-01T15:43:01;25.60;53.10
22469;DHT22;11401;50.792;4.352;2022-08-01T15:45:29;25.70;52.30
22469;DHT22;11401;50.792;4.352;2022-08-01T15:48:13;25.70;52.20
22469;DHT22;11401;50.792;4.352;2022-08-01T15:50:40;25.70;52.60
22469;DHT22;11401;50.792;4.352;2022-08-01T15:53:07;25.80;52.10
22469;DHT22;11401;50.792;4.352;2022-08-01T15:55:38;25.80;52.20
22469;DHT22;11401;50.792;4.352;2022-08-01T15:58:05;25.80;51.70
22469;DHT22;11401;50.792;4.352;2022-08-01T16:00:33;25.80;51.70
22469;DHT22;11401;50.792;4.352;2022-08-01T16:03:06;25.80;51.70
22469;DHT22;11401;50.792;4.352;2022-08-01T16:05:33;25.70;52.10
22469;DHT22;11401;50.792;4.352;2022-08-01T16:08:10;25.80;52.00
22469;DHT22;11401;50.792;4.352;2022-08-01T16:10:37;25.70;51.90
22469;DHT22;11401;50.792;4.352;2022-08-01T16:13:04;25.80;51.30
22469;DHT22;11401;50.792;4.352;2022-08-01T16:15:34;25.80;50.90
22469;DHT22;11401;50.792;4.352;2022-08-01T16:18:07;25.80;51.00
22469;DHT22;11401;50.792;4.352;2022-08-01T16:20:34;25.80;50.90
22469;DHT22;11401;50.792;4.352;2022-08-01T16:23:10;25.80;50.70
22469;DHT22;11401;50.792;4.352;2022-08-01T16:25:37;25.80;50.80